createdAt,value
2019-05-05T00:00:00.790Z,0
2019-05-05T00:05:00.769Z,0
2019-05-05T00:10:00.141Z,0
2019-05-05T00:15:00.397Z,0
2019-05-05T00:20:00.463Z,0
2019-05-05T00:25:00.646Z,0
2019-05-05T00:30:00.505Z,0
2019-05-05T00:35:00.605Z,0
2019-05-05T00:40:00.759Z,0
2019-05-05T00:45:00.242Z,0
2019-05-05T00:50:00.771Z,0
2019-05-05T00:55:00.226Z,0
2019-05-05T01:00:00.407Z,0
2019-05-05T01:04:59.969Z,0
2019-05-05T01:10:00.539Z,0
2019-05-05T01:15:00.215Z,0
2019-05-05T01:20:03.827Z,0
2019-05-05T01:24:59.848Z,0
2019-05-05T01:30:01.135Z,0
2019-05-05T01:34:59.967Z,0
2019-05-05T01:40:00.289Z,0
2019-05-05T01:44:59.925Z,0
2019-05-05T01:50:13.741Z,0
2019-05-05T01:54:59.900Z,0
2019-05-05T02:00:00.445Z,0
2019-05-05T02:05:00.298Z,0
2019-05-05T02:10:00.240Z,0
2019-05-05T02:15:00.914Z,0
2019-05-05T02:20:00.312Z,0
2019-05-05T02:25:00.074Z,0
2019-05-05T02:30:06.171Z,0
2019-05-05T02:40:07.685Z,0
2019-05-05T02:45:07.620Z,0
2019-05-05T02:50:00.861Z,0
2019-05-05T02:55:00.689Z,0
2019-05-05T03:00:00.730Z,0
2019-05-05T03:05:00.911Z,0
2019-05-05T03:10:00.786Z,0
2019-05-05T03:15:00.576Z,0
2019-05-05T03:20:00.656Z,0
2019-05-05T03:25:00.740Z,0
2019-05-05T03:30:00.709Z,0
2019-05-05T03:35:00.720Z,0
2019-05-05T03:40:00.712Z,0
2019-05-05T03:45:00.572Z,0
2019-05-05T03:50:00.813Z,0
2019-05-05T03:55:00.718Z,0
2019-05-05T04:00:01.019Z,0
2019-05-05T04:05:00.599Z,0
2019-05-05T04:10:00.961Z,0
2019-05-05T04:15:00.658Z,0
2019-05-05T04:20:00.456Z,0
2019-05-05T04:25:00.295Z,0.8
2019-05-05T04:30:00.937Z,0.8
2019-05-05T04:35:00.809Z,0.8
2019-05-05T04:40:00.760Z,1.7
2019-05-05T04:45:00.644Z,1.7
2019-05-05T04:50:00.542Z,3.3
2019-05-05T04:55:00.546Z,3.3
2019-05-05T05:00:00.676Z,3.3
2019-05-05T05:05:00.511Z,4.2
2019-05-05T05:10:00.677Z,6.7
2019-05-05T05:15:00.766Z,7.5
2019-05-05T05:20:00.398Z,5.8
2019-05-05T05:25:00.685Z,5.8
2019-05-05T05:30:00.467Z,5.8
2019-05-05T05:35:00.998Z,5.8
2019-05-05T05:40:00.448Z,5
2019-05-05T05:45:00.666Z,5.8
2019-05-05T05:50:00.641Z,5
2019-05-05T05:55:00.348Z,5.8
2019-05-05T06:00:00.317Z,5.8
2019-05-05T06:05:00.486Z,6.7
2019-05-05T06:10:00.191Z,10
2019-05-05T06:15:00.622Z,16.7
2019-05-05T06:20:00.662Z,16.7
2019-05-05T06:25:00.229Z,16.7
2019-05-05T06:30:00.505Z,17.5
2019-05-05T06:35:00.143Z,19.2
2019-05-05T06:40:00.449Z,19.2
2019-05-05T06:45:00.421Z,19.2
2019-05-05T06:50:00.480Z,20
2019-05-05T06:55:00.143Z,20.8
2019-05-05T07:00:00.556Z,24.2
2019-05-05T07:05:00.302Z,28.3
2019-05-05T07:10:00.812Z,15
2019-05-05T07:15:00.060Z,16.7
2019-05-05T07:20:00.609Z,35.8
2019-05-05T07:25:00.181Z,35
2019-05-05T07:30:01.131Z,29.2
2019-05-05T07:35:00.246Z,15
2019-05-05T07:40:00.280Z,15
2019-05-05T07:45:00.350Z,20.8
2019-05-05T07:50:00.507Z,25
2019-05-05T07:55:00.416Z,30
2019-05-05T08:00:00.170Z,30.8
2019-05-05T08:05:00.502Z,44.2
2019-05-05T08:10:00.428Z,43.3
2019-05-05T08:15:00.786Z,34.2
2019-05-05T08:20:00.434Z,31.7
2019-05-05T08:25:00.163Z,29.2
2019-05-05T08:30:03.079Z,25.8
2019-05-05T08:35:01.063Z,25
2019-05-05T08:40:00.129Z,25.8
2019-05-05T08:45:00.472Z,27.5
2019-05-05T08:50:00.341Z,28.3
2019-05-05T08:55:00.263Z,27.5
2019-05-05T09:00:00.397Z,29.2
2019-05-05T09:05:00.138Z,37.5
2019-05-05T09:10:00.045Z,35.8
2019-05-05T09:15:00.130Z,9.2
2019-05-05T09:20:00.300Z,15.8
2019-05-05T09:25:00.126Z,18.3
2019-05-05T09:30:00.480Z,16.7
2019-05-05T09:35:00.390Z,25
2019-05-05T09:39:59.895Z,25.8
2019-05-05T09:45:00.028Z,23.3
2019-05-05T09:49:59.893Z,33.3
2019-05-05T09:55:00.571Z,41.7
2019-05-05T10:00:00.185Z,33.3
2019-05-05T10:05:00.125Z,20.8
2019-05-05T10:10:00.096Z,24.2
2019-05-05T10:15:00.228Z,46.7
2019-05-05T10:20:00.143Z,37.5
2019-05-05T10:24:59.927Z,40
2019-05-05T10:30:00.296Z,44.2
2019-05-05T10:34:59.998Z,36.7
2019-05-05T10:40:00.521Z,36.7
2019-05-05T10:44:59.859Z,41.7
2019-05-05T10:50:00.257Z,41.7
2019-05-05T10:54:59.712Z,42.5
2019-05-05T11:00:10.131Z,28.3
2019-05-05T11:04:59.814Z,20
2019-05-05T11:10:00.351Z,11.7
2019-05-05T11:15:00.131Z,18.3
2019-05-05T11:19:59.955Z,25.8
2019-05-05T11:25:01.194Z,30
2019-05-05T11:29:59.913Z,28.3
2019-05-05T11:34:59.989Z,20
2019-05-05T11:40:00.506Z,19.2
2019-05-05T11:45:00.032Z,24.2
2019-05-05T11:49:59.785Z,32.5
2019-05-05T11:55:11.253Z,35.8
2019-05-05T11:59:59.818Z,35
2019-05-05T12:04:59.947Z,41.7
2019-05-05T12:10:00.581Z,55.8
2019-05-05T12:15:00.247Z,34.2
2019-05-05T12:20:00.196Z,58.3
2019-05-05T12:24:59.723Z,24.2
2019-05-05T12:29:59.833Z,37.5
2019-05-05T12:34:59.705Z,40
2019-05-05T12:40:00.027Z,31.7
2019-05-05T12:44:59.940Z,27.5
2019-05-05T12:49:59.905Z,70
2019-05-05T12:55:02.165Z,71.7
2019-05-05T12:59:59.883Z,28.3
2019-05-05T13:04:59.928Z,27.5
2019-05-05T13:09:59.723Z,27.5
2019-05-05T13:14:59.886Z,31.7
2019-05-05T13:19:59.994Z,20.8
2019-05-05T13:24:59.987Z,24.2
2019-05-05T13:29:59.963Z,49.2
2019-05-05T13:34:59.866Z,50.8
2019-05-05T13:40:00.010Z,64.2
2019-05-05T13:45:00.034Z,16.7
2019-05-05T13:49:59.614Z,10.8
2019-05-05T13:55:00.107Z,12.5
2019-05-05T13:59:59.773Z,16.7
2019-05-05T14:04:59.840Z,16.7
2019-05-05T14:09:59.668Z,22.5
2019-05-05T14:14:59.935Z,21.7
2019-05-05T14:20:05.228Z,25
2019-05-05T14:24:59.751Z,35.8
2019-05-05T14:30:04.102Z,45
2019-05-05T14:34:59.916Z,28.3
2019-05-05T14:39:59.966Z,12.5
2019-05-05T14:44:59.735Z,40
2019-05-05T14:50:07.862Z,29.2
2019-05-05T14:54:59.990Z,10
2019-05-05T15:00:00.272Z,8.3
2019-05-05T15:05:03.761Z,13.3
2019-05-05T15:10:01.840Z,18.3
2019-05-05T15:15:04.193Z,22.5
2019-05-05T15:19:59.704Z,31.7
2019-05-05T15:24:59.981Z,103.3
2019-05-05T15:29:59.827Z,9.2
2019-05-05T15:34:59.734Z,6.7
2019-05-05T15:39:59.798Z,12.5
2019-05-05T15:45:00.244Z,20
2019-05-05T15:50:00.041Z,73.3
2019-05-05T15:54:59.978Z,120
2019-05-05T16:00:00.064Z,28.3
2019-05-05T16:04:59.933Z,20.8
2019-05-05T16:10:00.313Z,17.5
2019-05-05T16:14:59.824Z,14.2
2019-05-05T16:20:00.274Z,18.3
2019-05-05T16:24:59.884Z,23.3
2019-05-05T16:30:00.098Z,24.2
2019-05-05T16:34:59.810Z,23.3
2019-05-05T16:39:59.794Z,16.7
2019-05-05T16:44:59.499Z,10
2019-05-05T16:49:59.882Z,7.5
2019-05-05T16:54:59.870Z,12.5
2019-05-05T16:59:59.730Z,15
2019-05-05T17:04:59.653Z,15.8
2019-05-05T17:10:00.444Z,15
2019-05-05T17:14:59.713Z,10
2019-05-05T17:19:59.806Z,10
2019-05-05T17:24:59.790Z,9.2
2019-05-05T17:29:59.693Z,9.2
2019-05-05T17:34:59.555Z,5.8
2019-05-05T17:40:00.866Z,4.2
2019-05-05T17:44:59.444Z,4.2
2019-05-05T17:49:59.735Z,1.7
2019-05-05T17:54:59.849Z,1.7
2019-05-05T18:00:00.842Z,3.3
2019-05-05T18:04:59.311Z,7.5
2019-05-05T18:09:59.791Z,5
2019-05-05T18:15:01.189Z,2.5
2019-05-05T18:19:59.828Z,0.8
2019-05-05T18:25:00.140Z,0
2019-05-05T18:29:59.615Z,0
2019-05-05T18:35:04.474Z,0.8
2019-05-05T18:39:59.469Z,0.8
2019-05-05T18:45:04.019Z,0.8
2019-05-05T18:50:00.577Z,0.8
2019-05-05T18:55:00.089Z,0.8
2019-05-05T19:00:18.690Z,0
2019-05-05T19:05:00.921Z,0
2019-05-05T19:09:59.657Z,0
2019-05-05T19:15:04.318Z,0
2019-05-05T19:19:59.465Z,0
2019-05-05T19:25:01.072Z,0
2019-05-05T19:30:00.221Z,0
2019-05-05T19:35:01.001Z,0
2019-05-05T19:40:05.830Z,0
2019-05-05T19:45:01.491Z,0
2019-05-05T19:49:59.790Z,0
2019-05-05T20:45:24.277Z,0
2019-05-05T20:50:04.750Z,0
2019-05-05T20:55:04.625Z,0
2019-05-05T21:00:03.261Z,0
2019-05-05T21:05:04.074Z,0
2019-05-05T21:10:04.106Z,0
2019-05-05T21:25:06.113Z,0
2019-05-05T21:30:04.094Z,0
2019-05-05T21:35:02.065Z,0
2019-05-05T21:40:04.465Z,0
2019-05-05T21:45:01.824Z,0
2019-05-05T21:50:03.707Z,0
2019-05-05T21:55:04.097Z,0
2019-05-05T22:00:01.868Z,0
2019-05-05T22:05:04.027Z,0
2019-05-05T22:10:04.301Z,0
2019-05-05T22:15:04.328Z,0
2019-05-05T22:20:04.038Z,0
2019-05-05T22:25:03.661Z,0
2019-05-05T22:30:09.493Z,0
2019-05-05T22:35:02.136Z,0
2019-05-05T22:40:02.060Z,0
2019-05-05T22:45:02.672Z,0
2019-05-05T22:50:04.265Z,0
2019-05-05T22:55:04.427Z,0
2019-05-05T23:00:03.771Z,0
2019-05-05T23:05:04.020Z,0
2019-05-05T23:10:04.441Z,0
2019-05-05T23:15:03.933Z,0
2019-05-05T23:20:04.642Z,0
2019-05-05T23:25:03.962Z,0
2019-05-05T23:30:01.905Z,0
2019-05-05T23:35:01.813Z,0
2019-05-05T23:40:03.819Z,0
2019-05-05T23:45:04.263Z,0
2019-05-05T23:50:04.377Z,0
2019-05-05T23:55:03.912Z,0
